SVYA4: Illinois River nr Savoy AR

                                SHEF ID:       SVYA4     Illinois River at Savoy, AR
STATION TYPE:

STAGE RIV-FLOW BAT-LOAD
ft cfs volt
Ccp-Rev Ccp-Rev Ccp-Rev
(America/Chicago)
04/26 00:00 4.81 734 12.65
04/26 01:00 8.06 2424 12.65
04/26 02:00 10.25 3760 12.65
04/26 03:00 11.41 4543 12.57
04/26 04:00 11.84 4847 12.57
04/26 05:00 11.83 4839 12.57
04/26 06:00 10.87 4173 12.57
04/26 07:00 9.34 3182 12.57
04/26 08:00 8.20 2505 12.57
04/26 09:00 7.51 2114 12.81
04/26 10:00 7.11 1899 13.29
04/26 11:00 6.79 1739 13.53
04/26 12:00 6.54 1620 13.84
04/26 13:00 6.34 1527 13.68
04/26 14:00 6.19 1459 13.44
04/26 15:00 6.05 1379 13.37
04/26 16:00 5.94 1314 13.37
04/26 17:00 5.83 1250 13.29
04/26 18:00 5.74 1199 13.21
04/26 19:00 5.64 1144 13.05
04/26 20:00 5.55 1095 12.89
04/26 21:00 5.46 1048 12.89
04/26 22:00 5.36 997 12.81
04/26 23:00 5.27 952 12.81
Data processed at Mon 27Apr2026 04:14 GMT

NOTICE: If you are parsing this page

Please convert to using our Data API. Starting early 2026 we will be migrating to: https://water.usace.army.mil with modern pages rendered in JavaScript. When this migration completes you will no longer be able to scrape this page! CWMSDataAPI (CDA)

Timeseries IDs (TSIDs)

TSIDs used from left to right in the data table
SAVO.Stage.Inst.1Hour.0.Ccp-Rev
SAVO.Flow.Inst.1Hour.0.Ccp-Rev
SAVO.Volt-Battery Load.Inst.1Hour.0.Ccp-Rev

                            

All information presented herein is the property of the government of the United States of America and may be revised or deleted at any time without prior notice. Dissemination of this information without the expressed written consent of the Public Affairs Office, Tulsa District U.S. Army Corps of Engineers is strictly prohibited. These data are gathered electronically and, as presented, have NOT undergone any form of quality control. These data are NOT guaranteed to be valid or correct.